^^
Station Historical Data
 
Daily Summary for April 18, 2019 Units:  Metric    English   Both
« Previous Day
Next Day »
Daily Weekly Monthly Yearly Custom
  Current: High: Low: Average:
Temperature: 19.0 °C 19.9 °C 11.8 °C 15.5 °C
Dew Point: 5.1 °C 9.9 °C 4.8 °C 7.2 °C
Humidity: 40% 74% 39% 59%
Wind Speed: 11.3km/h 20.9km/h 0.0km/h 7.8km/h
Wind Gust: 19.3km/h 25.7km/h - -
WindNE - - SW
Pressure: 1018.1 hPa 1018.1 hPa 1016.0 hPa -
Precipitation: 0.0 mm      
Historical Graphs
 
 
Tabular Data for April 18, 2019
Time Temperature Dew Point Pressure Wind Wind Speed Wind Gust Humidity Rainfall Rate (Hourly) Conditions
00:04 14.3 °C 5.9 °C 1016.6 hPa ENE 3.7 km/h 1.6 km/h 57% 0.0 mm SKC
00:09 14.3 °C 5.9 °C 1016.6 hPa ENE 1.9 km/h 1.0 km/h 57% 0.0 mm SKC
00:14 14.2 °C 5.6 °C 1016.6 hPa ENE 5.6 km/h 1.4 km/h 56% 0.0 mm SKC
00:19 14.2 °C 5.5 °C 1016.6 hPa NNE 5.6 km/h 2.3 km/h 56% 0.0 mm SKC
00:24 14.1 °C 5.7 °C 1016.6 hPa NNE 1.9 km/h 0.5 km/h 57% 0.0 mm SKC
00:29 14.1 °C 5.9 °C 1016.6 hPa NNE 1.9 km/h 1.0 km/h 58% 0.0 mm SKC
00:34 14.1 °C 6.2 °C 1016.6 hPa NNE 1.9 km/h   59% 0.0 mm SKC
00:39 14.0 °C 6.1 °C 1016.6 hPa Calm     59% 0.0 mm SKC
00:44 14.0 °C 6.3 °C 1016.5 hPa Calm     60% 0.0 mm SKC
00:49 13.9 °C 6.2 °C 1016.5 hPa Calm     60% 0.0 mm SKC
00:55 13.8 °C 6.2 °C 1016.5 hPa Calm     60% 0.0 mm SKC
00:59 13.8 °C 6.2 °C 1016.5 hPa Calm     60% 0.0 mm SKC
01:04 13.8 °C 6.4 °C 1016.5 hPa Calm     61% 0.0 mm SKC
01:09 13.8 °C 6.4 °C 1016.5 hPa NNW 3.7 km/h 1.8 km/h 61% 0.0 mm SKC
01:14 13.9 °C 6.2 °C 1016.4 hPa WNW 4.8 km/h 3.4 km/h 60% 0.0 mm SKC
01:19 13.7 °C 7.5 °C 1016.4 hPa West 9.3 km/h 4.3 km/h 66% 0.0 mm SKC
01:24 13.3 °C 7.6 °C 1016.4 hPa West 5.6 km/h 5.1 km/h 68% 0.0 mm SKC
01:29 13.1 °C 7.8 °C 1016.4 hPa WSW 8.0 km/h 7.4 km/h 70% 0.0 mm SKC
01:34 12.8 °C 7.9 °C 1016.4 hPa West 9.7 km/h 6.1 km/h 72% 0.0 mm SKC
01:39 12.7 °C 8.2 °C 1016.3 hPa WNW 9.3 km/h 6.1 km/h 74% 0.0 mm SKC
01:44 12.7 °C 8.0 °C 1016.3 hPa West 11.1 km/h 7.9 km/h 73% 0.0 mm SKC
01:49 12.8 °C 7.9 °C 1016.3 hPa West 9.3 km/h 5.6 km/h 72% 0.0 mm SKC
01:54 12.8 °C 8.1 °C 1016.3 hPa WNW 11.1 km/h 7.4 km/h 73% 0.0 mm SKC
01:59 12.6 °C 7.8 °C 1016.3 hPa WNW 11.1 km/h 7.2 km/h 73% 0.0 mm SKC
02:04 12.7 °C 7.9 °C 1016.2 hPa WNW 9.3 km/h 6.3 km/h 73% 0.0 mm SKC
02:09 12.8 °C 8.1 °C 1016.2 hPa WNW 9.3 km/h 5.6 km/h 73% 0.0 mm SKC
02:14 12.9 °C 8.2 °C 1016.3 hPa WNW 8.0 km/h 5.3 km/h 73% 0.0 mm SKC
02:19 12.9 °C 8.2 °C 1016.3 hPa WNW 9.3 km/h 5.6 km/h 73% 0.0 mm SKC
02:24 13.0 °C 8.3 °C 1016.2 hPa WNW 6.4 km/h 5.3 km/h 73% 0.0 mm SKC
02:29 12.9 °C 8.2 °C 1016.2 hPa WNW 9.3 km/h 7.1 km/h 73% 0.0 mm SKC
02:34 12.8 °C 8.1 °C 1016.2 hPa WNW 11.1 km/h 9.5 km/h 73% 0.0 mm SKC
02:39 12.7 °C 8.2 °C 1016.2 hPa West 9.7 km/h 7.1 km/h 74% 0.0 mm SKC
02:44 12.6 °C 8.1 °C 1016.2 hPa West 11.3 km/h 8.8 km/h 74% 0.0 mm SKC
02:49 12.4 °C 7.9 °C 1016.2 hPa West 13.0 km/h 7.1 km/h 74% 0.0 mm SKC
02:54 12.4 °C 7.9 °C 1016.2 hPa NW 11.1 km/h 8.7 km/h 74% 0.0 mm SKC
02:59 12.4 °C 7.7 °C 1016.2 hPa NNW 13.0 km/h 6.3 km/h 73% 0.0 mm SKC
03:04 12.5 °C 7.6 °C 1016.2 hPa NW 7.4 km/h 5.0 km/h 72% 0.0 mm SKC
03:09 12.5 °C 7.2 °C 1016.2 hPa WNW 9.3 km/h 3.5 km/h 70% 0.0 mm SKC
03:15 12.5 °C 6.9 °C 1016.2 hPa WNW 1.6 km/h 6.4 km/h 69% 0.0 mm SKC
03:19 12.4 °C 6.9 °C 1016.2 hPa WNW 3.7 km/h 1.6 km/h 69% 0.0 mm SKC
03:24 12.5 °C 6.8 °C 1016.2 hPa NNW 5.6 km/h 4.0 km/h 68% 0.0 mm SKC
03:29 12.7 °C 6.7 °C 1016.2 hPa NNW 5.6 km/h 2.3 km/h 67% 0.0 mm SKC
03:34 12.8 °C 6.8 °C 1016.1 hPa NNW 3.7 km/h 2.7 km/h 67% 0.0 mm SKC
03:39 12.9 °C 6.5 °C 1016.1 hPa WNW 6.4 km/h 4.0 km/h 65% 0.0 mm SKC
03:44 13.2 °C 6.3 °C 1016.1 hPa NW 9.3 km/h 6.0 km/h 63% 0.0 mm SKC
03:49 13.3 °C 6.2 °C 1016.1 hPa WNW 5.6 km/h 4.3 km/h 62% 0.0 mm SKC
03:54 13.3 °C 5.9 °C 1016.1 hPa NNW 11.1 km/h 6.3 km/h 61% 0.0 mm SKC
03:59 13.3 °C 5.9 °C 1016.1 hPa WNW 5.6 km/h 3.1 km/h 61% 0.0 mm SKC
04:04 13.2 °C 5.8 °C 1016.0 hPa West 13.0 km/h 2.4 km/h 61% 0.0 mm SKC
04:09 13.1 °C 5.8 °C 1016.0 hPa NNW 9.3 km/h 5.8 km/h 61% 0.0 mm SKC
04:15 13.1 °C 5.9 °C 1016.0 hPa NW 4.8 km/h 8.0 km/h 62% 0.0 mm SKC
04:19 12.9 °C 5.8 °C 1016.0 hPa NW 7.4 km/h 6.8 km/h 62% 0.0 mm SKC
04:25 12.8 °C 5.7 °C 1016.0 hPa NW 4.8 km/h 8.0 km/h 62% 0.0 mm SKC
04:29 12.7 °C 5.6 °C 1016.0 hPa NW 5.6 km/h 3.7 km/h 62% 0.0 mm SKC
04:34 12.7 °C 5.8 °C 1016.0 hPa WNW 5.6 km/h 3.2 km/h 63% 0.0 mm SKC
04:39 12.6 °C 6.0 °C 1016.0 hPa WNW 5.6 km/h 4.8 km/h 64% 0.0 mm SKC
04:45 12.6 °C 6.2 °C 1016.0 hPa WNW 3.2 km/h 6.4 km/h 65% 0.0 mm SKC
04:49 12.6 °C 6.2 °C 1016.0 hPa NNW 5.6 km/h 4.0 km/h 65% 0.0 mm SKC
04:55 12.6 °C 5.9 °C 1016.1 hPa WNW 4.8 km/h 12.9 km/h 64% 0.0 mm SKC
05:00 12.4 °C 6.0 °C 1016.2 hPa WNW 4.8 km/h 6.4 km/h 65% 0.0 mm SKC
05:04 12.4 °C 6.0 °C 1016.2 hPa NW 4.8 km/h 3.2 km/h 65% 0.0 mm SKC
05:09 12.3 °C 5.7 °C 1016.2 hPa WNW 11.1 km/h 8.7 km/h 64% 0.0 mm SKC
05:14 12.1 °C 5.7 °C 1016.3 hPa West 9.3 km/h 5.3 km/h 65% 0.0 mm SKC
05:19 12.0 °C 5.8 °C 1016.3 hPa NW 5.6 km/h 1.3 km/h 66% 0.0 mm SKC
05:25 12.0 °C 5.8 °C 1016.3 hPa Calm   3.2 km/h 66% 0.0 mm SKC
05:29 11.9 °C 5.8 °C 1016.3 hPa NW 3.7 km/h 1.9 km/h 66% 0.0 mm SKC
05:34 11.9 °C 5.8 °C 1016.3 hPa North 4.8 km/h 3.7 km/h 66% 0.0 mm SKC
05:39 12.0 °C 5.6 °C 1016.3 hPa NNW 3.7 km/h 3.4 km/h 65% 0.0 mm SKC
05:45 12.0 °C 5.6 °C 1016.3 hPa Calm   3.2 km/h 65% 0.0 mm SKC
05:49 11.9 °C 5.6 °C 1016.3 hPa NNW 1.9 km/h   65% 0.0 mm SKC
05:54 11.9 °C 5.5 °C 1016.3 hPa Calm     65% 0.0 mm SKC
05:59 11.9 °C 5.6 °C 1016.3 hPa NW 4.8 km/h 0.5 km/h 65% 0.0 mm SKC
06:05 12.1 °C 5.4 °C 1016.3 hPa NW 3.2 km/h 6.4 km/h 64% 0.0 mm SKC
06:09 12.1 °C 5.4 °C 1016.3 hPa WNW 3.7 km/h 1.6 km/h 64% 0.0 mm SKC
06:15 12.0 °C 5.4 °C 1016.3 hPa Calm   3.2 km/h 64% 0.0 mm SKC
06:19 11.9 °C 5.5 °C 1016.4 hPa WNW 1.9 km/h   65% 0.0 mm SKC
06:24 11.8 °C 5.4 °C 1016.4 hPa Calm     65% 0.0 mm SKC
06:29 11.8 °C 5.4 °C 1016.4 hPa WNW 4.8 km/h 0.2 km/h 65% 0.0 mm SKC
06:34 11.8 °C 5.7 °C 1016.4 hPa WNW 5.6 km/h 4.2 km/h 66% 0.0 mm SKC
06:39 11.9 °C 5.9 °C 1016.5 hPa WNW 3.7 km/h 2.3 km/h 67% 0.0 mm SKC
06:44 11.9 °C 6.0 °C 1016.6 hPa West 5.6 km/h 2.4 km/h 67% 0.0 mm SKC
06:49 12.1 °C 6.3 °C 1016.6 hPa West 9.7 km/h 6.0 km/h 68% 0.0 mm SKC
06:54 12.2 °C 6.4 °C 1016.7 hPa West 5.6 km/h 5.1 km/h 68% 0.0 mm SKC
07:00 12.2 °C 6.7 °C 1016.7 hPa West 3.2 km/h 6.4 km/h 69% 0.0 mm SKC
07:04 12.4 °C 6.7 °C 1016.7 hPa West 5.6 km/h 4.3 km/h 68% 0.0 mm SKC
07:10 12.5 °C 6.9 °C 1016.8 hPa West 8.0 km/h 9.7 km/h 69% 0.0 mm SKC
07:15 12.6 °C 7.1 °C 1016.8 hPa WNW 4.8 km/h 11.3 km/h 69% 0.0 mm SKC
07:19 12.7 °C 7.3 °C 1016.8 hPa WNW 11.1 km/h 8.8 km/h 70% 0.0 mm SKC
07:25 12.7 °C 7.6 °C 1016.9 hPa WNW 9.7 km/h 14.5 km/h 71% 0.0 mm SKC
07:29 12.6 °C 7.5 °C 1017.0 hPa WNW 13.0 km/h 7.4 km/h 71% 0.0 mm SKC
07:34 12.6 °C 7.7 °C 1017.0 hPa WNW 12.9 km/h 8.4 km/h 72% 0.0 mm SKC
07:40 12.6 °C 7.7 °C 1017.0 hPa WNW 9.7 km/h 14.5 km/h 72% 0.0 mm SKC
07:44 12.7 °C 7.6 °C 1017.0 hPa WNW 8.0 km/h 6.8 km/h 71% 0.0 mm SKC
07:49 12.9 °C 7.3 °C 1017.1 hPa WNW 11.3 km/h 7.9 km/h 69% 0.0 mm SKC
07:54 12.9 °C 7.4 °C 1017.1 hPa WNW 11.1 km/h 5.0 km/h 69% 0.0 mm SKC
08:00 12.9 °C 7.4 °C 1017.2 hPa West 4.8 km/h 9.7 km/h 69% 0.0 mm SKC
08:04 13.1 °C 7.6 °C 1017.2 hPa West 7.4 km/h 6.6 km/h 69% 0.0 mm SKC
08:10 13.1 °C 7.5 °C 1017.2 hPa WNW 4.8 km/h 12.9 km/h 69% 0.0 mm SKC
08:14 13.1 °C 7.3 °C 1017.2 hPa West 9.3 km/h 5.8 km/h 68% 0.0 mm SKC
08:20 13.2 °C 7.0 °C 1017.2 hPa WNW 4.8 km/h 9.7 km/h 66% 0.0 mm SKC
08:25 13.3 °C 6.4 °C 1017.2 hPa WNW 4.8 km/h 12.9 km/h 63% 0.0 mm SKC
08:30 13.5 °C 6.6 °C 1017.2 hPa West 4.8 km/h 11.3 km/h 63% 0.0 mm SKC
08:34 13.4 °C 7.0 °C 1017.2 hPa WNW 11.1 km/h 5.6 km/h 65% 0.0 mm SKC
08:39 13.4 °C 6.3 °C 1017.2 hPa WNW 13.0 km/h 10.3 km/h 62% 0.0 mm SKC
08:44 13.3 °C 6.4 °C 1017.3 hPa WSW 9.3 km/h 6.8 km/h 63% 0.0 mm SKC
08:50 13.4 °C 6.5 °C 1017.3 hPa West 3.2 km/h 11.3 km/h 63% 0.0 mm SKC
08:54 13.7 °C 6.8 °C 1017.3 hPa West 5.6 km/h 3.1 km/h 63% 0.0 mm SKC
09:00 13.9 °C 6.8 °C 1017.4 hPa West 4.8 km/h 11.3 km/h 62% 0.0 mm SKC
09:04 13.9 °C 6.6 °C 1017.4 hPa West 11.3 km/h 8.8 km/h 61% 0.0 mm SKC
09:10 14.1 °C 6.7 °C 1017.4 hPa WNW 9.7 km/h 11.3 km/h 61% 0.0 mm SKC
09:14 14.2 °C 6.6 °C 1017.4 hPa West 13.0 km/h 8.4 km/h 60% 0.0 mm SKC
09:19 14.2 °C 6.8 °C 1017.4 hPa West 11.1 km/h 7.2 km/h 61% 0.0 mm SKC
09:25 14.4 °C 7.2 °C 1017.5 hPa WNW 3.2 km/h 11.3 km/h 62% 0.0 mm SKC
09:29 14.7 °C 7.3 °C 1017.6 hPa WNW 9.3 km/h 6.1 km/h 61% 0.0 mm SKC
09:34 14.8 °C 7.6 °C 1017.5 hPa WNW 11.1 km/h 6.6 km/h 62% 0.0 mm SKC
09:39 14.9 °C 7.9 °C 1017.5 hPa West 11.3 km/h 7.7 km/h 63% 0.0 mm SKC
09:44 14.9 °C 7.9 °C 1017.6 hPa NW 11.1 km/h 7.2 km/h 63% 0.0 mm SKC
09:49 15.1 °C 7.8 °C 1017.5 hPa West 9.3 km/h 6.4 km/h 62% 0.0 mm SKC
09:55 15.3 °C 8.1 °C 1017.5 hPa West 4.8 km/h 11.3 km/h 62% 0.0 mm SKC
10:00 15.4 °C 8.2 °C 1017.5 hPa West 1.6 km/h 9.7 km/h 62% 0.0 mm SKC
10:04 15.6 °C 8.3 °C 1017.5 hPa West 5.6 km/h 3.9 km/h 62% 0.0 mm SKC
10:09 15.8 °C 8.6 °C 1017.6 hPa NW 5.6 km/h 3.5 km/h 62% 0.0 mm SKC
10:14 16.0 °C 8.5 °C 1017.6 hPa West 4.8 km/h 2.4 km/h 61% 0.0 mm SKC
10:19 16.2 °C 8.4 °C 1017.6 hPa West 6.4 km/h 3.4 km/h 60% 0.0 mm SKC
10:24 16.4 °C 8.7 °C 1017.6 hPa NW 5.6 km/h 3.5 km/h 60% 0.0 mm SKC
10:30 16.4 °C 8.4 °C 1017.6 hPa WSW 3.2 km/h 6.4 km/h 59% 0.0 mm SKC
10:35 16.4 °C 8.4 °C 1017.6 hPa SW 3.2 km/h 9.7 km/h 59% 0.0 mm SKC
10:39 16.4 °C 8.6 °C 1017.5 hPa SW 11.1 km/h 6.8 km/h 60% 0.0 mm SKC
10:44 16.4 °C 8.7 °C 1017.5 hPa WSW 9.3 km/h 5.5 km/h 60% 0.0 mm SKC
10:49 16.5 °C 8.4 °C 1017.6 hPa SW 9.3 km/h 5.1 km/h 59% 0.0 mm SKC
10:55 16.4 °C 8.4 °C 1017.5 hPa WSW 3.2 km/h 9.7 km/h 59% 0.0 mm SKC
10:59 16.8 °C 8.7 °C 1017.5 hPa WSW 9.3 km/h 4.8 km/h 59% 0.0 mm SKC
11:05 16.9 °C 8.6 °C 1017.5 hPa WSW 9.7 km/h 14.5 km/h 58% 0.0 mm SKC
11:09 16.5 °C 8.7 °C 1017.4 hPa SW 13.0 km/h 7.4 km/h 60% 0.0 mm SKC
11:14 16.4 °C 8.7 °C 1017.4 hPa West 14.5 km/h 11.1 km/h 60% 0.0 mm SKC
11:19 16.4 °C 8.9 °C 1017.4 hPa West 11.1 km/h 8.0 km/h 61% 0.0 mm SKC
11:25 16.7 °C 8.6 °C 1017.5 hPa West 9.7 km/h 14.5 km/h 59% 0.0 mm SKC
11:29 16.7 °C 8.7 °C 1017.4 hPa WSW 11.3 km/h 7.9 km/h 59% 0.0 mm SKC
11:34 16.9 °C 8.6 °C 1017.4 hPa West 11.1 km/h 8.4 km/h 58% 0.0 mm SKC
11:39 17.1 °C 9.0 °C 1017.4 hPa West 9.3 km/h 5.8 km/h 59% 0.0 mm SKC
11:45 17.3 °C 9.2 °C 1017.4 hPa West 4.8 km/h 9.7 km/h 59% 0.0 mm SKC
11:49 17.4 °C 8.6 °C 1017.5 hPa WSW 11.1 km/h 3.9 km/h 56% 0.0 mm SKC
11:55 17.7 °C 8.8 °C 1017.5 hPa WSW 8.0 km/h 12.9 km/h 56% 0.0 mm SKC
11:59 17.8 °C 8.6 °C 1017.4 hPa West 14.8 km/h 8.7 km/h 55% 0.0 mm SKC
12:05 17.6 °C 8.2 °C 1017.4 hPa West 8.0 km/h 14.5 km/h 54% 0.0 mm SKC
12:09 17.8 °C 8.9 °C 1017.3 hPa WSW 13.0 km/h 5.8 km/h 56% 0.0 mm SKC
12:14 17.9 °C 8.7 °C 1017.3 hPa WSW 7.4 km/h 5.1 km/h 55% 0.0 mm SKC
12:20 17.9 °C 8.5 °C 1017.3 hPa WSW 4.8 km/h 11.3 km/h 54% 0.0 mm SKC
12:24 17.8 °C 8.7 °C 1017.2 hPa West 13.0 km/h 10.1 km/h 55% 0.0 mm SKC
12:30 17.7 °C 8.6 °C 1017.2 hPa West 11.3 km/h 12.9 km/h 55% 0.0 mm SKC
12:35 17.7 °C 9.1 °C 1017.1 hPa WSW 8.0 km/h 12.9 km/h 57% 0.0 mm SKC
12:40 17.9 °C 9.3 °C 1017.1 hPa WSW 8.0 km/h 12.9 km/h 57% 0.0 mm SKC
12:44 17.9 °C 8.8 °C 1017.1 hPa West 13.0 km/h 9.7 km/h 55% 0.0 mm SKC
12:49 17.9 °C 8.7 °C 1017.0 hPa West 13.0 km/h 6.1 km/h 55% 0.0 mm SKC
12:54 18.4 °C 9.2 °C 1017.0 hPa WNW 11.3 km/h 7.2 km/h 55% 0.0 mm SKC
13:00 18.4 °C 9.2 °C 1017.0 hPa West 8.0 km/h 12.9 km/h 55% 0.0 mm SKC
13:05 18.1 °C 8.6 °C 1016.9 hPa WSW 12.9 km/h 16.1 km/h 54% 0.0 mm SKC
13:10 18.3 °C 9.3 °C 1016.9 hPa WSW 11.3 km/h 14.5 km/h 56% 0.0 mm SKC
13:15 18.6 °C 9.3 °C 1016.8 hPa WSW 9.7 km/h 14.5 km/h 55% 0.0 mm SKC
13:20 18.7 °C 9.2 °C 1016.8 hPa WSW 11.3 km/h 14.5 km/h 54% 0.0 mm SKC
13:24 18.9 °C 9.9 °C 1016.9 hPa WSW 14.5 km/h 8.5 km/h 56% 0.0 mm SKC
13:30 18.6 °C 9.6 °C 1016.8 hPa West 11.3 km/h 16.1 km/h 56% 0.0 mm SKC
13:35 18.7 °C 9.7 °C 1017.0 hPa WSW 9.7 km/h 16.1 km/h 56% 0.0 mm SKC
13:40 18.6 °C 9.6 °C 1017.0 hPa WSW 3.2 km/h 12.9 km/h 56% 0.0 mm SKC
13:44 18.6 °C 9.9 °C 1017.1 hPa WSW 6.4 km/h 4.7 km/h 57% 0.0 mm SKC
13:49 18.7 °C 8.6 °C 1017.1 hPa WNW 5.6 km/h 0.6 km/h 52% 0.0 mm SKC
13:55 18.8 °C 8.8 °C 1017.1 hPa WNW 3.2 km/h 4.8 km/h 52% 0.0 mm SKC
14:00 19.1 °C 8.9 °C 1017.1 hPa WNW 8.0 km/h 11.3 km/h 52% 0.0 mm SKC
14:05 19.7 °C 9.5 °C 1017.0 hPa NW 3.2 km/h 14.5 km/h 52% 0.0 mm SKC
14:10 19.8 °C 9.7 °C 1017.0 hPa ENE 3.2 km/h 14.5 km/h 52% 0.0 mm SKC
14:15 19.9 °C 9.8 °C 1017.1 hPa ENE 3.2 km/h 9.7 km/h 52% 0.0 mm SKC
14:19 19.8 °C 9.6 °C 1017.1 hPa West 5.6 km/h 2.3 km/h 52% 0.0 mm SKC
14:25 19.8 °C 9.1 °C 1017.1 hPa ENE 8.0 km/h 14.5 km/h 50% 0.0 mm FEW
14:30 19.7 °C 9.3 °C 1017.0 hPa ENE 3.2 km/h 16.1 km/h 51% 0.0 mm FEW
14:35 19.6 °C 8.6 °C 1017.0 hPa ENE 9.7 km/h 16.1 km/h 49% 0.0 mm FEW
14:39 19.6 °C 8.9 °C 1017.0 hPa East 19.3 km/h 6.6 km/h 50% 0.0 mm FEW
14:44 19.4 °C 8.2 °C 1017.0 hPa ENE 13.0 km/h 6.9 km/h 48% 0.0 mm FEW
14:50 19.4 °C 8.1 °C 1016.9 hPa ENE 4.8 km/h 12.9 km/h 48% 0.0 mm FEW
14:55 19.3 °C 7.7 °C 1016.9 hPa ENE 9.7 km/h 20.9 km/h 47% 0.0 mm FEW
15:00 19.3 °C 8.3 °C 1017.0 hPa NE 3.2 km/h 19.3 km/h 49% 0.0 mm FEW
15:05 19.2 °C 8.2 °C 1017.0 hPa NE 12.9 km/h 25.7 km/h 49% 0.0 mm FEW
15:09 19.1 °C 8.2 °C 1016.9 hPa East 13.0 km/h 9.5 km/h 49% 0.0 mm FEW
15:14 19.2 °C 8.2 °C 1016.9 hPa East 14.8 km/h 7.9 km/h 49% 0.0 mm FEW
15:19 19.1 °C 7.8 °C 1016.9 hPa ENE 18.5 km/h 11.9 km/h 48% 0.0 mm FEW
15:25 19.1 °C 7.8 °C 1016.9 hPa ENE 11.3 km/h 19.3 km/h 48% 0.0 mm FEW
15:30 19.0 °C 7.1 °C 1017.0 hPa ENE 11.3 km/h 20.9 km/h 46% 0.0 mm FEW
15:35 19.0 °C 7.4 °C 1017.1 hPa ENE 11.3 km/h 24.1 km/h 47% 0.0 mm FEW
15:40 19.0 °C 7.1 °C 1017.1 hPa ENE 11.3 km/h 20.9 km/h 46% 0.0 mm FEW
15:45 19.0 °C 6.8 °C 1017.1 hPa ENE 11.3 km/h 20.9 km/h 45% 0.0 mm FEW
15:50 18.9 °C 6.7 °C 1017.2 hPa ENE 11.3 km/h 20.9 km/h 45% 0.0 mm FEW
15:55 18.9 °C 6.4 °C 1017.2 hPa ENE 12.9 km/h 20.9 km/h 44% 0.0 mm FEW
15:59 18.9 °C 6.1 °C 1017.2 hPa East 14.5 km/h 5.6 km/h 43% 0.0 mm FEW
16:05 18.9 °C 5.7 °C 1017.2 hPa NE 8.0 km/h 20.9 km/h 42% 0.0 mm FEW
16:10 18.9 °C 6.1 °C 1017.2 hPa ENE 11.3 km/h 19.3 km/h 43% 0.0 mm FEW
16:15 19.0 °C 6.2 °C 1017.3 hPa ENE 8.0 km/h 20.9 km/h 43% 0.0 mm FEW
16:19 19.2 °C 5.6 °C 1017.4 hPa North 16.7 km/h 5.5 km/h 41% 0.0 mm FEW
16:24 19.2 °C 5.6 °C 1017.4 hPa ESE 20.9 km/h 9.2 km/h 41% 0.0 mm FEW
16:30 19.1 °C 5.2 °C 1017.4 hPa ENE 11.3 km/h 19.3 km/h 40% 0.0 mm FEW
16:35 19.1 °C 4.8 °C 1017.4 hPa ENE 11.3 km/h 19.3 km/h 39% 0.0 mm FEW
16:40 19.1 °C 5.2 °C 1017.5 hPa ENE 9.7 km/h 19.3 km/h 40% 0.0 mm FEW
16:45 19.2 °C 5.7 °C 1017.4 hPa ENE 4.8 km/h 16.1 km/h 41% 0.0 mm FEW
16:50 19.3 °C 5.7 °C 1017.5 hPa East 8.0 km/h 16.1 km/h 41% 0.0 mm FEW
16:55 19.3 °C 5.7 °C 1017.5 hPa ENE 12.9 km/h 25.7 km/h 41% 0.0 mm FEW
17:00 19.3 °C 5.3 °C 1017.5 hPa ENE 11.3 km/h 19.3 km/h 40% 0.0 mm FEW
17:04 19.4 °C 5.4 °C 1017.6 hPa NNE 9.7 km/h 8.2 km/h 40% 0.0 mm FEW
17:10 19.4 °C 5.4 °C 1017.6 hPa ENE 12.9 km/h 19.3 km/h 40% 0.0 mm FEW
17:15 19.2 °C 5.3 °C 1017.7 hPa ENE 4.8 km/h 19.3 km/h 40% 0.0 mm SKC
17:20 19.3 °C 5.7 °C 1017.7 hPa ENE 3.2 km/h 20.9 km/h 41% 0.0 mm SKC
17:25 19.3 °C 5.4 °C 1017.7 hPa NE 8.0 km/h 14.5 km/h 40% 0.0 mm SKC
17:30 19.3 °C 5.0 °C 1017.7 hPa NNE 3.2 km/h 16.1 km/h 39% 0.0 mm SKC
17:34 19.6 °C 5.2 °C 1017.7 hPa ENE 7.4 km/h 2.3 km/h 39% 0.0 mm SKC
17:40 19.6 °C 5.2 °C 1017.7 hPa ENE 3.2 km/h 11.3 km/h 39% 0.0 mm SKC
17:45 19.5 °C 5.5 °C 1017.7 hPa ENE 8.0 km/h 16.1 km/h 40% 0.0 mm SKC
17:50 19.2 °C 4.9 °C 1017.8 hPa ENE 11.3 km/h 20.9 km/h 39% 0.0 mm SKC
17:55 19.1 °C 5.1 °C 1017.8 hPa ENE 12.9 km/h 22.5 km/h 40% 0.0 mm SKC
18:00 19.1 °C 5.2 °C 1017.9 hPa ENE 3.2 km/h 19.3 km/h 40% 0.0 mm SKC
18:05 19.1 °C 5.6 °C 1017.9 hPa ENE 8.0 km/h 19.3 km/h 41% 0.0 mm SKC
18:09 19.2 °C 5.2 °C 1017.9 hPa WNW 5.6 km/h 4.8 km/h 40% 0.0 mm SKC
18:15 19.2 °C 4.9 °C 1018.0 hPa ENE 8.0 km/h 19.3 km/h 39% 0.0 mm SKC
18:20 19.0 °C 5.1 °C 1018.1 hPa NE 11.3 km/h 19.3 km/h 40% 0.0 mm SKC